Time;durP1;ratioP1;P1;durP2;ratioP2;P2;SDS_P1;SDS_P2;PMS_P1;PMS_P2;Temp;Humidity;BMP_temperature;BMP_pressure;BME280_temperature;BME280_humidity;BME280_pressure;Samples;Min_cycle;Max_cycle;Signal;HPM_P1;HPM_P2
2021/11/08 00:00:12;;;;;;;29.48;15.10;;;;;;;7.00;99.81;100742.55;1760046;81;21483;-46
2021/11/08 00:02:41;;;;;;;51.55;16.45;;;;;;;7.03;99.64;100741.70;1736992;81;21512;-46
2021/11/08 00:05:08;;;;;;;44.75;16.77;;;;;;;7.05;99.59;100743.41;1755165;80;21742;-45
2021/11/08 00:07:36;;;;;;;34.85;15.13;;;;;;;7.09;99.42;100738.28;1769781;80;20960;-46
2021/11/08 00:10:07;;;;;;;38.65;14.83;;;;;;;7.10;99.30;100738.27;1748114;80;20961;-46
2021/11/08 00:12:35;;;;;;;30.72;16.10;;;;;;;7.12;99.24;100736.55;1744984;81;21031;-45
2021/11/08 00:15:03;;;;;;;25.25;14.58;;;;;;;7.15;99.01;100728.82;1737674;80;21006;-45
2021/11/08 00:17:57;;;;;;;32.00;14.40;;;;;;;7.21;98.86;100728.42;1747441;81;21113;-46
2021/11/08 00:20:27;;;;;;;35.58;14.55;;;;;;;7.24;98.72;100724.11;1753002;81;20882;-46
2021/11/08 00:22:50;;;;;;;32.05;14.65;;;;;;;7.30;98.75;100727.12;1735696;81;21094;-45
2021/11/08 00:25:18;;;;;;;35.52;14.50;;;;;;;7.32;98.55;100727.53;1744758;81;21108;-45
2021/11/08 00:27:46;;;;;;;32.83;14.07;;;;;;;7.36;98.40;100715.96;1747123;81;21024;-45
2021/11/08 00:30:14;;;;;;;22.02;13.62;;;;;;;7.40;98.22;100709.94;1752861;80;20985;-45
2021/11/08 00:32:42;;;;;;;29.82;14.15;;;;;;;7.44;98.12;100704.77;1751090;80;21486;-45
2021/11/08 00:35:09;;;;;;;38.20;13.90;;;;;;;7.47;97.80;100700.05;1748678;80;20928;-45
2021/11/08 00:37:36;;;;;;;28.92;13.28;;;;;;;7.53;97.74;100700.48;1751126;81;20967;-45
2021/11/08 00:40:04;;;;;;;38.80;13.60;;;;;;;7.58;97.75;100702.19;1754632;81;20992;-46
2021/11/08 00:42:32;;;;;;;28.45;13.85;;;;;;;7.62;97.43;100696.58;1736310;81;21140;-45
2021/11/08 00:44:58;;;;;;;40.10;13.58;;;;;;;7.66;97.18;100690.55;1744868;81;21026;-45
2021/11/08 00:47:26;;;;;;;39.95;14.65;;;;;;;7.71;97.17;100675.97;1742978;81;20971;-45
2021/11/08 00:49:54;;;;;;;37.50;15.75;;;;;;;7.76;97.07;100673.35;1755831;81;20976;-45
2021/11/08 00:52:20;;;;;;;36.17;14.30;;;;;;;7.79;96.67;100666.05;1741876;80;21062;-45
2021/11/08 00:54:47;;;;;;;51.75;16.42;;;;;;;7.84;96.58;100677.20;1753472;80;21136;-45
2021/11/08 00:57:18;;;;;;;34.70;15.72;;;;;;;7.86;96.50;100670.31;1735943;81;21056;-46
2021/11/08 00:59:42;;;;;;;33.53;15.90;;;;;;;7.89;96.43;100667.72;1737480;80;20908;-46
2021/11/08 01:02:09;;;;;;;32.15;15.32;;;;;;;7.92;96.30;100676.73;1730588;81;21015;-46
2021/11/08 01:04:37;;;;;;;46.23;17.37;;;;;;;7.95;96.37;100669.42;1750362;81;20984;-45
2021/11/08 01:07:05;;;;;;;29.25;17.65;;;;;;;7.97;95.81;100663.83;1736087;81;21830;-45
2021/11/08 01:09:32;;;;;;;34.92;18.17;;;;;;;7.98;95.83;100654.81;1733838;81;21194;-45
2021/11/08 01:11:59;;;;;;;31.73;17.05;;;;;;;7.99;95.72;100651.38;1737448;81;21011;-46
2021/11/08 01:14:26;;;;;;;33.63;18.50;;;;;;;8.00;95.64;100652.21;1710374;82;20953;-45
2021/11/08 01:16:57;;;;;;;32.55;18.25;;;;;;;7.99;95.69;100655.23;1738102;80;21050;-45
2021/11/08 01:19:21;;;;;;;31.65;18.60;;;;;;;7.98;95.64;100650.95;1747490;81;21145;-45
2021/11/08 01:21:48;;;;;;;32.23;19.00;;;;;;;7.98;95.81;100650.08;1756042;81;20989;-46
2021/11/08 01:24:14;;;;;;;31.20;18.52;;;;;;;7.97;96.06;100647.95;1758673;80;22936;-45
2021/11/08 01:26:41;;;;;;;31.97;19.12;;;;;;;7.97;96.16;100638.92;1747225;81;21056;-45
2021/11/08 01:29:09;;;;;;;42.00;18.25;;;;;;;7.96;96.29;100637.63;1748531;81;21063;-45
2021/11/08 01:31:36;;;;;;;36.00;18.35;;;;;;;7.95;96.42;100628.19;1734694;80;21137;-46
2021/11/08 01:34:02;;;;;;;30.27;17.77;;;;;;;7.94;96.65;100620.02;1749977;80;21519;-46
2021/11/08 01:36:36;;;;;;;33.38;18.27;;;;;;;7.93;96.85;100628.62;1753849;80;21611;-46
2021/11/08 01:39:10;;;;;;;32.85;19.05;;;;;;;7.93;96.88;100621.73;1750827;81;20972;-46
2021/11/08 01:41:28;;;;;;;29.20;18.00;;;;;;;7.91;97.04;100623.46;1738778;81;21015;-46
2021/11/08 01:43:55;;;;;;;31.42;18.20;;;;;;;7.91;97.15;100623.46;1753289;80;21111;-46
2021/11/08 01:46:22;;;;;;;27.80;17.55;;;;;;;7.91;97.11;100623.46;1716506;80;21481;-46
2021/11/08 01:48:50;;;;;;;29.00;17.57;;;;;;;7.90;97.25;100621.75;1754105;81;21144;-46
2021/11/08 01:51:17;;;;;;;30.43;17.48;;;;;;;7.88;97.44;100623.06;1749462;80;21619;-46
2021/11/08 01:53:44;;;;;;;26.55;17.40;;;;;;;7.89;97.54;100623.91;1760284;80;21083;-45
2021/11/08 01:56:10;;;;;;;35.20;18.10;;;;;;;7.86;97.59;100622.63;1749525;80;21091;-46
2021/11/08 01:58:38;;;;;;;29.23;18.10;;;;;;;7.85;97.62;100620.50;1750935;80;20983;-46
2021/11/08 02:01:04;;;;;;;35.38;18.20;;;;;;;7.84;97.77;100625.23;1740168;81;21027;-46
2021/11/08 02:03:31;;;;;;;25.90;17.12;;;;;;;7.82;97.75;100615.78;1747660;81;21051;-45
2021/11/08 02:05:58;;;;;;;31.55;18.20;;;;;;;7.82;97.95;100620.48;1745273;81;20920;-46
2021/11/08 02:08:26;;;;;;;34.25;18.17;;;;;;;7.80;98.06;100617.06;1751837;80;21048;-46
2021/11/08 02:10:55;;;;;;;29.63;17.27;;;;;;;7.79;98.17;100611.94;1742085;81;21003;-46
2021/11/08 02:13:22;;;;;;;28.05;18.02;;;;;;;7.78;98.08;100614.92;1753210;80;20937;-46
2021/11/08 02:15:50;;;;;;;29.00;17.80;;;;;;;7.76;98.16;100608.51;1751740;80;20940;-45
2021/11/08 02:18:20;;;;;;;33.00;17.40;;;;;;;7.76;98.16;100607.64;1753397;80;21049;-46
2021/11/08 02:20:48;;;;;;;34.65;17.75;;;;;;;7.76;98.16;100611.50;1750446;81;21913;-46
2021/11/08 02:23:15;;;;;;;38.13;18.57;;;;;;;7.74;98.29;100625.70;1755113;81;20960;-47
2021/11/08 02:25:43;;;;;;;32.67;16.93;;;;;;;7.74;98.38;100626.98;1742668;80;20944;-46
2021/11/08 02:28:10;;;;;;;34.18;18.20;;;;;;;7.75;98.58;100634.27;1735898;81;21031;-46
2021/11/08 02:30:38;;;;;;;28.70;16.60;;;;;;;7.74;98.66;100638.58;1735927;81;21496;-46
2021/11/08 02:33:08;;;;;;;41.33;17.62;;;;;;;7.75;98.77;100640.71;1735991;81;21091;-46
2021/11/08 02:35:36;;;;;;;35.38;18.17;;;;;;;7.75;98.80;100635.14;1757301;81;22152;-45
2021/11/08 02:38:05;;;;;;;28.00;16.30;;;;;;;7.75;99.00;100639.02;1721682;82;21123;-45
2021/11/08 02:40:31;;;;;;;29.77;16.37;;;;;;;7.76;98.99;100637.27;1752100;81;21011;-46
2021/11/08 02:43:01;;;;;;;33.50;17.40;;;;;;;7.75;99.01;100637.72;1759621;81;20991;-46
2021/11/08 02:45:29;;;;;;;31.30;17.23;;;;;;;7.78;99.00;100632.12;1755979;80;21123;-46
2021/11/08 02:47:55;;;;;;;35.83;17.73;;;;;;;7.76;99.08;100627.84;1739723;81;20972;-45
2021/11/08 02:50:27;;;;;;;32.70;17.32;;;;;;;7.76;99.26;100624.39;1736166;81;20952;-45
2021/11/08 02:52:56;;;;;;;26.77;17.07;;;;;;;7.75;99.34;100613.23;1742866;81;20932;-45
2021/11/08 02:55:25;;;;;;;31.10;18.62;;;;;;;7.76;99.40;100617.53;1739740;81;21040;-46
2021/11/08 02:57:54;;;;;;;32.20;16.73;;;;;;;7.75;99.54;100605.51;1753287;81;21123;-45
2021/11/08 03:00:23;;;;;;;30.12;17.75;;;;;;;7.75;99.58;100618.81;1758664;80;21020;-46
2021/11/08 03:02:50;;;;;;;34.90;19.00;;;;;;;7.74;99.83;100607.66;1729838;81;20944;-46
2021/11/08 03:05:20;;;;;;;29.57;17.35;;;;;;;7.76;99.96;100610.22;1745910;80;20940;-45
2021/11/08 03:07:46;;;;;;;32.93;17.37;;;;;;;7.75;100.00;100614.53;1752540;80;21026;-45
2021/11/08 03:10:18;;;;;;;31.10;17.77;;;;;;;7.76;100.00;100605.06;1748249;81;21179;-46
2021/11/08 03:12:46;;;;;;;28.42;17.07;;;;;;;7.78;100.00;100603.33;1745431;81;21086;-46
2021/11/08 03:15:39;;;;;;;31.75;17.90;;;;;;;7.78;100.00;100605.91;1753789;81;21032;-45
2021/11/08 03:18:11;;;;;;;24.65;16.02;;;;;;;7.79;100.00;100608.07;1736740;81;21015;-45
2021/11/08 03:20:24;;;;;;;31.93;18.05;;;;;;;7.78;100.00;100599.47;1742029;81;21036;-46
2021/11/08 03:22:56;;;;;;;28.02;17.12;;;;;;;7.80;100.00;100591.74;1752684;81;21172;-45
2021/11/08 03:27:51;;;;;;;25.88;17.12;;;;;;;7.83;100.00;100590.02;1746223;81;21533;-45
2021/11/08 03:30:26;;;;;;;29.48;17.05;;;;;;;7.85;100.00;100596.44;1749493;81;20965;-46
2021/11/08 03:32:55;;;;;;;29.70;17.75;;;;;;;7.84;100.00;100594.72;1732436;81;21573;-46
2021/11/08 03:35:23;;;;;;;29.70;15.50;;;;;;;7.84;100.00;100596.02;1750093;80;21206;-45
2021/11/08 03:37:51;;;;;;;32.67;18.17;;;;;;;7.84;100.00;100593.44;1754603;80;21013;-46
2021/11/08 03:40:24;;;;;;;28.62;16.93;;;;;;;7.85;100.00;100593.86;1742547;81;20971;-45
2021/11/08 03:42:55;;;;;;;30.35;17.02;;;;;;;7.84;100.00;100605.03;1736829;80;21034;-45
2021/11/08 03:45:20;;;;;;;35.03;18.65;;;;;;;7.87;100.00;100607.59;1750995;81;20997;-45
2021/11/08 03:47:47;;;;;;;37.17;18.50;;;;;;;7.87;100.00;100606.30;1754335;80;21098;-45
2021/11/08 03:50:13;;;;;;;31.15;17.52;;;;;;;7.88;100.00;100605.44;1742732;81;20985;-46
2021/11/08 03:52:40;;;;;;;32.63;18.52;;;;;;;7.88;100.00;100596.00;1749556;80;21026;-45
2021/11/08 03:55:10;;;;;;;35.50;17.35;;;;;;;7.88;100.00;100597.29;1716283;81;21541;-45
2021/11/08 03:57:37;;;;;;;36.17;18.85;;;;;;;7.89;100.00;100599.41;1749205;80;21512;-46
2021/11/08 04:00:06;;;;;;;37.00;18.52;;;;;;;7.89;100.00;100604.57;1747803;81;21174;-46
2021/11/08 04:02:33;;;;;;;35.00;18.12;;;;;;;7.91;100.00;100602.84;1743547;81;20940;-46
2021/11/08 04:05:01;;;;;;;35.80;17.98;;;;;;;7.90;100.00;100604.99;1749941;80;20963;-45
2021/11/08 04:07:28;;;;;;;35.03;19.37;;;;;;;7.91;100.00;100604.13;1744392;81;20987;-46
2021/11/08 04:09:55;;;;;;;32.58;17.75;;;;;;;7.90;100.00;100600.71;1755767;81;20957;-45
2021/11/08 04:12:23;;;;;;;32.25;18.60;;;;;;;7.91;100.00;100597.69;1763305;81;21192;-46
2021/11/08 04:14:51;;;;;;;32.60;18.60;;;;;;;7.93;100.00;100597.69;1751947;80;21063;-46
2021/11/08 04:17:18;;;;;;;35.40;18.77;;;;;;;7.93;100.00;100589.95;1752372;81;21529;-46
2021/11/08 04:19:46;;;;;;;34.78;19.10;;;;;;;7.94;100.00;100592.95;1760937;81;20988;-46
2021/11/08 04:22:12;;;;;;;32.73;18.62;;;;;;;7.94;100.00;100584.77;1736051;81;20940;-46
2021/11/08 04:24:42;;;;;;;31.25;18.90;;;;;;;7.94;100.00;100591.67;1750816;81;21088;-46
2021/11/08 04:27:08;;;;;;;33.48;19.07;;;;;;;7.95;100.00;100594.22;1746568;81;20933;-46
2021/11/08 04:29:35;;;;;;;33.70;18.85;;;;;;;7.95;100.00;100600.66;1735817;80;21036;-46
2021/11/08 04:32:03;;;;;;;39.25;20.12;;;;;;;7.96;100.00;100607.56;1742542;80;21590;-46
2021/11/08 04:34:49;;;;;;;31.68;18.57;;;;;;;7.96;100.00;100592.09;1756539;80;20951;-46
2021/11/08 04:40:04;;;;;;;35.73;19.23;;;;;;;7.98;100.00;100595.52;1748335;80;21541;-46
2021/11/08 04:50:29;;;;;;;59.77;21.30;;;;;;;8.04;100.00;100600.63;1751516;80;21167;-46
2021/11/08 04:53:03;;;;;;;62.23;22.15;;;;;;;8.05;100.00;100594.61;1740355;81;21012;-46
2021/11/08 04:58:12;;;;;;;46.60;21.87;;;;;;;8.10;100.00;100600.17;1747212;79;21483;-45
2021/11/08 05:30:10;;;;;;;43.63;20.60;;;;;;;8.29;100.00;100575.98;1752076;80;22330;-45
2021/11/08 05:32:43;;;;;;;38.40;20.95;;;;;;;8.31;100.00;100589.72;1745222;81;21556;-46
2021/11/08 05:35:12;;;;;;;51.88;22.55;;;;;;;8.34;100.00;100592.28;1750603;81;20941;-46
2021/11/08 05:37:41;;;;;;;39.83;21.50;;;;;;;8.36;100.00;100597.44;1753872;81;21261;-46
2021/11/08 05:40:12;;;;;;;41.48;22.52;;;;;;;8.38;100.00;100587.97;1739841;81;21003;-46
2021/11/08 05:42:37;;;;;;;43.52;22.93;;;;;;;8.39;100.00;100577.20;1750446;81;21099;-46
2021/11/08 05:45:07;;;;;;;34.43;20.68;;;;;;;8.41;100.00;100572.87;1744404;80;21509;-46
2021/11/08 05:47:35;;;;;;;42.05;23.10;;;;;;;8.43;100.00;100587.91;1749794;80;20944;-46
2021/11/08 05:50:02;;;;;;;36.35;20.92;;;;;;;8.47;100.00;100585.30;1755383;81;21004;-47
2021/11/08 05:52:30;;;;;;;40.05;21.35;;;;;;;8.51;100.00;100580.15;1758767;80;21759;-46
2021/11/08 05:54:56;;;;;;;39.30;21.65;;;;;;;8.51;100.00;100581.44;1750179;81;21146;-46
2021/11/08 06:51:40;;;;;;;50.92;20.15;;;;;;;9.10;100.00;100605.47;1718015;82;21035;-45
2021/11/08 06:54:07;;;;;;;31.55;20.32;;;;;;;9.13;100.00;100612.73;1750691;80;20956;-45
2021/11/08 06:56:43;;;;;;;31.07;20.10;;;;;;;9.16;100.00;100621.73;1726259;81;21028;-45
2021/11/08 06:59:06;;;;;;;33.88;19.45;;;;;;;9.18;100.00;100621.73;1753303;81;21045;-46
2021/11/08 07:01:33;;;;;;;34.85;21.45;;;;;;;9.19;100.00;100629.45;1765714;80;21847;-45
2021/11/08 07:04:00;;;;;;;37.15;22.45;;;;;;;9.19;100.00;100641.52;1735613;81;21558;-46
2021/11/08 07:06:26;;;;;;;33.30;21.20;;;;;;;9.18;100.00;100639.36;1752953;81;21028;-45
2021/11/08 07:08:53;;;;;;;32.25;20.37;;;;;;;9.23;100.00;100635.91;1755126;80;20941;-46
2021/11/08 07:11:20;;;;;;;30.75;18.37;;;;;;;9.24;100.00;100633.28;1747905;81;20992;-45
2021/11/08 07:13:46;;;;;;;36.42;19.87;;;;;;;9.27;100.00;100638.88;1756445;81;21798;-45
2021/11/08 07:16:13;;;;;;;34.58;20.25;;;;;;;9.31;100.00;100632.80;1731519;81;20968;-45
2021/11/08 07:18:40;;;;;;;35.17;19.75;;;;;;;9.33;100.00;100637.51;1745951;80;21022;-45
2021/11/08 07:21:06;;;;;;;34.43;20.17;;;;;;;9.35;100.00;100633.17;1759144;80;22131;-45
2021/11/08 07:23:33;;;;;;;35.65;19.48;;;;;;;9.39;100.00;100632.27;1746553;81;20988;-45
2021/11/08 07:26:00;;;;;;;28.23;18.98;;;;;;;9.44;100.00;100613.69;1743002;81;21169;-46
2021/11/08 07:28:26;;;;;;;31.55;18.87;;;;;;;9.51;100.00;100613.64;1753489;81;20988;-45
2021/11/08 07:30:53;;;;;;;29.55;18.52;;;;;;;9.58;100.00;100616.56;1754503;81;21062;-45
2021/11/08 07:33:19;;;;;;;32.65;19.17;;;;;;;9.65;100.00;100622.53;1762328;80;21365;-45
2021/11/08 07:35:46;;;;;;;35.68;20.35;;;;;;;9.72;100.00;100622.41;1760425;80;21533;-46
2021/11/08 07:38:12;;;;;;;35.10;19.92;;;;;;;9.78;100.00;100628.82;1759336;81;21116;-45
2021/11/08 07:40:39;;;;;;;30.15;19.40;;;;;;;9.84;100.00;100621.41;1761577;80;20988;-45
2021/11/08 07:43:05;;;;;;;34.60;18.85;;;;;;;9.90;100.00;100613.59;1756994;81;20990;-45
2021/11/08 07:45:32;;;;;;;33.25;18.73;;;;;;;9.99;100.00;100607.45;1745238;81;20969;-45
2021/11/08 07:47:58;;;;;;;33.83;20.17;;;;;;;10.08;100.00;100608.19;1743069;81;21592;-45
2021/11/08 07:50:25;;;;;;;32.03;19.00;;;;;;;10.14;100.00;100620.59;1738717;80;21773;-45
2021/11/08 07:52:52;;;;;;;32.33;19.75;;;;;;;10.20;100.00;100624.81;1750242;81;21007;-45
2021/11/08 07:55:19;;;;;;;34.03;19.20;;;;;;;10.24;100.00;100610.11;1758611;81;20976;-45
2021/11/08 07:57:46;;;;;;;31.77;18.98;;;;;;;10.29;100.00;100612.19;1747556;81;21018;-45
2021/11/08 08:00:13;;;;;;;33.70;18.15;;;;;;;10.35;100.00;100618.13;1749765;81;21033;-45
2021/11/08 08:02:42;;;;;;;32.38;19.42;;;;;;;10.42;100.00;100604.70;1753483;81;21152;-45
2021/11/08 08:05:09;;;;;;;32.88;19.60;;;;;;;10.51;100.00;100610.17;1739109;80;21015;-46
2021/11/08 08:07:35;;;;;;;30.57;18.32;;;;;;;10.59;100.00;100600.97;1761853;81;21075;-45
2021/11/08 08:10:04;;;;;;;32.03;19.40;;;;;;;10.64;100.00;100600.03;1759196;80;21055;-46
2021/11/08 08:12:32;;;;;;;41.68;19.62;;;;;;;10.68;100.00;100596.95;1740064;80;20932;-46
2021/11/08 08:15:00;;;;;;;31.97;17.62;;;;;;;10.70;100.00;100594.33;1735939;81;21042;-45
2021/11/08 08:17:26;;;;;;;29.42;19.32;;;;;;;10.77;100.00;100583.00;1731835;80;20948;-45
2021/11/08 08:19:53;;;;;;;33.42;18.60;;;;;;;10.85;100.00;100580.26;1746480;81;21008;-45
2021/11/08 08:22:21;;;;;;;44.08;18.10;;;;;;;10.93;100.00;100580.55;1758406;81;20935;-45
2021/11/08 08:24:47;;;;;;;30.90;18.55;;;;;;;11.00;100.00;100576.57;1755214;80;20934;-45
2021/11/08 08:27:14;;;;;;;38.15;19.30;;;;;;;11.08;99.78;100575.98;1763596;80;21811;-45
2021/11/08 08:29:40;;;;;;;30.70;17.85;;;;;;;11.19;99.51;100567.55;1728232;81;21612;-45
2021/11/08 08:32:08;;;;;;;52.23;19.90;;;;;;;11.27;98.63;100571.75;1701180;81;20960;-45
2021/11/08 08:34:35;;;;;;;45.08;18.57;;;;;;;11.30;97.87;100571.69;1741605;81;21059;-45
2021/11/08 08:37:01;;;;;;;39.98;18.85;;;;;;;11.31;96.53;100572.09;1724919;81;21007;-46
2021/11/08 08:39:28;;;;;;;40.83;19.57;;;;;;;11.31;95.99;100570.34;1754026;80;21130;-45
2021/11/08 08:41:55;;;;;;;40.10;18.15;;;;;;;11.31;95.24;100572.09;1740546;81;20983;-45
2021/11/08 08:44:22;;;;;;;37.73;18.27;;;;;;;11.31;95.58;100581.17;1757106;80;21035;-45
2021/11/08 08:46:49;;;;;;;37.17;18.92;;;;;;;11.37;95.29;100583.63;1754777;80;20981;-45
2021/11/08 08:49:16;;;;;;;25.75;16.55;;;;;;;11.42;94.94;100583.55;1740223;80;20972;-46
2021/11/08 08:51:43;;;;;;;41.33;18.07;;;;;;;11.49;94.75;100590.31;1755781;81;21213;-45
2021/11/08 08:54:10;;;;;;;35.90;18.75;;;;;;;11.56;93.43;100606.60;1747505;81;20979;-45
2021/11/08 08:56:37;;;;;;;32.90;17.62;;;;;;;11.57;93.60;100603.13;1762436;81;21186;-45
2021/11/08 08:59:04;;;;;;;27.85;18.15;;;;;;;11.61;92.55;100603.47;1762268;81;21017;-45
2021/11/08 09:01:31;;;;;;;31.23;16.55;;;;;;;11.61;92.08;100606.89;1760246;80;20925;-45
2021/11/08 09:03:58;;;;;;;25.70;16.15;;;;;;;11.63;92.50;100609.47;1754138;80;22278;-46
2021/11/08 09:06:25;;;;;;;22.85;15.53;;;;;;;11.69;92.35;100611.93;1761522;80;21026;-45
2021/11/08 09:08:53;;;;;;;21.97;15.95;;;;;;;11.75;91.91;100605.34;1717338;81;20995;-46
2021/11/08 09:11:19;;;;;;;27.50;15.88;;;;;;;11.78;91.30;100588.42;1746190;80;20967;-45
2021/11/08 09:13:47;;;;;;;27.58;15.70;;;;;;;11.83;91.39;100595.24;1754350;81;20901;-46
2021/11/08 09:16:15;;;;;;;20.77;15.05;;;;;;;11.88;91.14;100598.58;1748737;81;20937;-45
2021/11/08 09:18:48;;;;;;;26.77;16.17;;;;;;;11.96;91.21;100599.72;1754339;81;20935;-46
2021/11/08 09:21:16;;;;;;;23.40;14.53;;;;;;;12.03;89.87;100586.62;1745982;81;21083;-45
2021/11/08 09:23:43;;;;;;;28.32;15.48;;;;;;;12.06;89.86;100586.55;1754506;81;21162;-45
2021/11/08 09:26:09;;;;;;;31.02;15.65;;;;;;;12.13;90.34;100579.91;1755377;81;20984;-45
2021/11/08 09:28:36;;;;;;;29.15;15.10;;;;;;;12.18;90.06;100575.46;1765272;80;21120;-45
2021/11/08 09:31:03;;;;;;;39.83;15.28;;;;;;;12.23;89.71;100580.56;1744892;81;21011;-46
2021/11/08 09:33:30;;;;;;;24.10;14.73;;;;;;;12.23;89.50;100589.17;1737520;80;21068;-45
2021/11/08 09:36:05;;;;;;;28.50;14.85;;;;;;;12.17;88.47;100597.98;1743427;81;20959;-45
2021/11/08 09:38:30;;;;;;;44.05;15.15;;;;;;;12.10;88.96;100600.28;1745005;81;20956;-45
2021/11/08 09:40:58;;;;;;;35.48;16.07;;;;;;;12.07;89.39;100605.12;1760551;80;21195;-45
2021/11/08 09:43:24;;;;;;;23.10;13.15;;;;;;;12.07;89.20;100609.01;1762321;81;20997;-45
2021/11/08 09:45:52;;;;;;;21.93;11.65;;;;;;;12.09;88.89;100606.83;1744153;81;20952;-45
2021/11/08 09:48:18;;;;;;;34.63;13.03;;;;;;;12.06;87.21;100618.98;1730795;82;21054;-45
2021/11/08 09:50:45;;;;;;;18.80;10.15;;;;;;;12.06;87.64;100614.22;1730005;81;20999;-46
2021/11/08 09:53:13;;;;;;;12.53;9.83;;;;;;;12.06;85.92;100607.73;1747768;81;21141;-45
2021/11/08 09:55:41;;;;;;;35.23;11.78;;;;;;;12.05;85.02;100609.91;1752602;80;20901;-45
2021/11/08 09:58:08;;;;;;;22.50;10.72;;;;;;;12.07;85.15;100631.48;1750416;81;21540;-45
2021/11/08 10:00:52;;;;;;;13.38;8.80;;;;;;;12.11;84.09;100640.91;1737767;80;21320;-46
2021/11/08 10:03:25;;;;;;;18.05;9.35;;;;;;;12.11;82.06;100643.97;1731958;81;21564;-46
2021/11/08 10:05:55;;;;;;;13.00;9.18;;;;;;;12.06;81.28;100639.73;1748314;80;21219;-45
2021/11/08 10:08:33;;;;;;;14.63;9.10;;;;;;;12.04;81.50;100644.11;1751687;81;21522;-45
2021/11/08 10:11:04;;;;;;;16.20;9.28;;;;;;;12.01;82.00;100632.50;1751794;81;20986;-45
2021/11/08 10:13:31;;;;;;;15.58;8.73;;;;;;;12.01;80.70;100634.23;1759566;80;21027;-45
2021/11/08 10:16:11;;;;;;;12.37;8.95;;;;;;;12.00;80.51;100641.14;1736113;81;20976;-45
2021/11/08 10:18:40;;;;;;;15.05;8.13;;;;;;;12.00;79.96;100630.77;1725009;81;21817;-45
2021/11/08 10:21:16;;;;;;;13.53;8.48;;;;;;;12.02;80.18;100631.61;1751399;80;20938;-45
2021/11/08 10:23:45;;;;;;;;;;;;;;;12.07;79.23;100633.66;1738403;81;20952;-45
2021/11/08 10:26:16;;;;;;;17.85;8.48;;;;;;;12.12;78.02;100630.94;1742622;81;20196;-46
2021/11/08 10:28:43;;;;;;;15.05;8.38;;;;;;;12.06;78.45;100631.95;1741156;80;20983;-45
2021/11/08 10:31:15;;;;;;;13.85;7.90;;;;;;;12.04;78.25;100619.45;1736773;80;21152;-46
2021/11/08 10:36:49;;;;;;;9.45;8.00;;;;;;;12.06;78.22;100623.30;1797788;79;22592;-46
2021/11/08 10:39:15;;;;;;;15.35;8.50;;;;;;;12.06;78.22;100623.30;1738135;81;20905;-46
2021/11/08 10:41:44;;;;;;;12.10;8.70;;;;;;;12.07;78.82;100623.28;1757577;80;21089;-45
2021/11/08 10:44:21;;;;;;;13.95;7.90;;;;;;;12.17;77.77;100614.85;1757375;81;21349;-45
2021/11/08 10:46:58;;;;;;;64.75;10.20;;;;;;;12.28;76.71;100622.82;1738268;81;20971;-45
2021/11/08 10:49:26;;;;;;;22.30;8.53;;;;;;;12.39;76.03;100632.96;1756991;81;20987;-46
2021/11/08 10:51:56;;;;;;;19.82;7.85;;;;;;;12.43;75.72;100628.97;1757469;81;21616;-46
2021/11/08 10:54:35;;;;;;;12.50;8.13;;;;;;;12.42;74.11;100635.48;1757369;81;21150;-46
2021/11/08 10:57:05;;;;;;;10.68;7.42;;;;;;;12.32;74.26;100631.81;1737924;81;20992;-46
2021/11/08 10:59:37;;;;;;;12.80;7.83;;;;;;;12.27;74.26;100630.20;1757429;81;20952;-46
2021/11/08 11:02:06;;;;;;;11.85;7.37;;;;;;;12.26;74.65;100628.49;1757385;81;21026;-46
2021/11/08 11:04:47;;;;;;;8.35;7.53;;;;;;;12.21;74.38;100622.97;1695268;83;20986;-45
2021/11/08 11:07:28;;;;;;;14.45;8.08;;;;;;;12.18;75.33;100622.17;1723929;83;21160;-46
2021/11/08 11:10:13;;;;;;;13.43;9.03;;;;;;;12.17;76.16;100629.55;1723594;83;21010;-46
2021/11/08 11:12:45;;;;;;;15.90;9.58;;;;;;;12.09;76.44;100638.80;1724336;81;20971;-47
2021/11/08 11:15:17;;;;;;;15.83;8.75;;;;;;;11.99;75.87;100648.48;1723782;83;20979;-45
2021/11/08 11:17:48;;;;;;;14.23;9.03;;;;;;;11.84;75.56;100657.44;1722276;83;21540;-45
2021/11/08 11:20:21;;;;;;;16.48;8.70;;;;;;;11.74;76.03;100650.74;1697913;84;21790;-46
2021/11/08 11:23:05;;;;;;;14.45;9.68;;;;;;;11.63;76.21;100640.58;1716075;82;20978;-46
2021/11/08 11:25:36;;;;;;;16.23;10.95;;;;;;;11.58;77.07;100660.11;1708479;84;21068;-46
2021/11/08 11:28:05;;;;;;;17.30;11.05;;;;;;;11.56;77.73;100659.75;1708677;84;20995;-46
2021/11/08 11:30:38;;;;;;;17.73;10.85;;;;;;;11.49;78.06;100659.88;1708574;84;21010;-46
2021/11/08 11:33:20;;;;;;;19.95;10.60;;;;;;;11.40;78.35;100657.43;1708018;84;21801;-46
2021/11/08 11:35:55;;;;;;;12.37;9.03;;;;;;;11.32;77.54;100652.38;1702508;83;22338;-46
2021/11/08 11:38:25;;;;;;;16.62;8.63;;;;;;;11.29;76.84;100656.33;1695683;84;21004;-45
2021/11/08 11:41:00;;;;;;;11.88;7.25;;;;;;;11.26;76.68;100662.88;1695798;84;20984;-46
2021/11/08 11:43:42;;;;;;;13.15;8.33;;;;;;;11.18;76.19;100652.64;1694636;84;21039;-46
2021/11/08 11:46:26;;;;;;;10.60;7.03;;;;;;;11.11;76.35;100660.11;1683612;83;21843;-46
2021/11/08 11:48:52;;;;;;;10.15;7.20;;;;;;;11.07;77.39;100697.32;1670809;84;21532;-46
2021/11/08 11:51:28;;;;;;;9.80;7.05;;;;;;;11.01;77.25;100695.67;1695450;84;21055;-46
2021/11/08 11:53:55;;;;;;;11.80;7.03;;;;;;;10.96;77.69;100666.84;1665190;84;21549;-46
2021/11/08 11:56:24;;;;;;;10.68;6.05;;;;;;;10.91;77.27;100628.92;1695288;83;21516;-46
2021/11/08 11:58:51;;;;;;;10.20;6.83;;;;;;;10.89;76.10;100655.29;1695372;83;21210;-46
2021/11/08 12:01:21;;;;;;;7.53;5.37;;;;;;;10.87;75.81;100664.82;1695276;83;21624;-45
2021/11/08 12:03:48;;;;;;;8.75;5.45;;;;;;;10.85;75.62;100658.81;1695299;84;20964;-46
2021/11/08 12:06:19;;;;;;;9.20;5.75;;;;;;;10.85;74.48;100665.29;1695392;84;21015;-46
2021/11/08 12:08:46;;;;;;;12.47;5.70;;;;;;;10.81;73.09;100671.83;1694964;84;20976;-46
2021/11/08 12:11:14;;;;;;;12.90;6.25;;;;;;;10.76;73.42;100666.74;1695311;84;21142;-46
2021/11/08 12:13:45;;;;;;;9.40;5.75;;;;;;;10.72;73.85;100680.16;1695600;84;21561;-46
2021/11/08 12:16:19;;;;;;;9.53;5.83;;;;;;;10.69;73.61;100679.34;1694415;84;20979;-46
2021/11/08 12:18:47;;;;;;;12.30;5.80;;;;;;;10.66;72.95;100686.73;1695266;83;21039;-46
2021/11/08 12:21:35;;;;;;;11.33;6.35;;;;;;;10.60;72.25;100681.63;1695377;84;21027;-45
2021/11/08 12:24:15;;;;;;;8.98;5.55;;;;;;;10.55;72.92;100678.27;1695340;84;21062;-45
2021/11/08 12:26:42;;;;;;;9.28;5.85;;;;;;;10.49;72.84;100698.19;1695343;84;21525;-45
2021/11/08 12:29:16;;;;;;;8.83;6.08;;;;;;;10.44;72.94;100696.11;1695515;83;21529;-45
2021/11/08 12:31:42;;;;;;;12.03;6.80;;;;;;;10.43;72.67;100702.58;1695229;84;20976;-45
2021/11/08 12:34:16;;;;;;;12.70;6.95;;;;;;;10.42;73.02;100711.23;1665610;84;20979;-45
2021/11/08 12:36:56;;;;;;;15.23;8.65;;;;;;;10.38;73.22;100712.12;1694910;83;21059;-45
2021/11/08 12:39:23;;;;;;;14.35;8.15;;;;;;;10.35;73.94;100709.12;1695194;83;21568;-45
2021/11/08 12:41:53;;;;;;;12.78;8.23;;;;;;;10.29;74.76;100706.62;1695189;84;20983;-46
2021/11/08 12:44:22;;;;;;;13.03;8.28;;;;;;;10.22;75.69;100713.59;1695173;84;21091;-47
2021/11/08 12:47:01;;;;;;;22.42;10.20;;;;;;;10.17;76.61;100707.21;1665373;84;21545;-45
2021/11/08 12:49:40;;;;;;;13.70;9.68;;;;;;;10.08;77.11;100706.47;1665215;83;22155;-45
2021/11/08 12:52:14;;;;;;;14.90;10.05;;;;;;;10.01;77.84;100710.43;1690160;84;21019;-45
2021/11/08 12:54:55;;;;;;;17.02;11.57;;;;;;;9.97;78.56;100713.06;1695327;84;20975;-45
2021/11/08 12:57:24;;;;;;;16.30;11.10;;;;;;;9.88;78.86;100721.78;1695319;84;20980;-46
2021/11/08 12:59:59;;;;;;;22.07;12.13;;;;;;;9.75;79.79;100738.73;1695236;84;21027;-45
2021/11/08 13:02:40;;;;;;;19.50;13.58;;;;;;;9.68;79.95;100756.90;1665875;84;21196;-46
2021/11/08 13:05:08;;;;;;;20.70;12.60;;;;;;;9.59;80.49;100758.68;1694858;84;21521;-46